createdAt,value
2018-12-26T00:02:24.410Z,40.99
2018-12-26T00:04:54.699Z,40.98
2018-12-26T00:07:25.028Z,41.00
2018-12-26T00:10:14.452Z,40.96
2018-12-26T00:12:44.884Z,40.94
2018-12-26T00:15:15.177Z,40.94
2018-12-26T00:17:45.437Z,40.92
2018-12-26T00:20:17.367Z,40.86
2018-12-26T00:22:47.634Z,40.86
2018-12-26T00:25:18.011Z,40.82
2018-12-26T00:27:48.378Z,40.82
2018-12-26T00:30:18.738Z,40.81
2018-12-26T00:32:49.058Z,40.79
2018-12-26T00:35:19.429Z,40.79
2018-12-26T00:37:49.760Z,40.78
2018-12-26T00:40:20.114Z,40.75
2018-12-26T00:42:50.374Z,40.70
2018-12-26T00:45:20.727Z,40.70
2018-12-26T00:47:51.058Z,40.71
2018-12-26T00:50:21.388Z,40.69
2018-12-26T00:52:51.657Z,40.68
2018-12-26T00:55:21.917Z,40.68
2018-12-26T00:57:52.174Z,40.63
2018-12-26T01:00:22.512Z,40.63
2018-12-26T01:02:52.828Z,40.63
2018-12-26T01:05:23.114Z,40.60
2018-12-26T01:07:53.407Z,40.60
2018-12-26T01:10:23.656Z,40.56
2018-12-26T01:12:54.004Z,40.55
2018-12-26T01:15:24.332Z,40.53
2018-12-26T01:17:54.623Z,40.56
2018-12-26T01:20:24.882Z,40.55
2018-12-26T01:22:55.162Z,40.52
2018-12-26T01:25:25.422Z,40.52
2018-12-26T01:27:55.776Z,40.52
2018-12-26T01:30:26.131Z,40.43
2018-12-26T01:32:56.404Z,40.43
2018-12-26T01:35:26.696Z,40.43
2018-12-26T01:37:57.028Z,40.45
2018-12-26T01:40:27.406Z,40.44
2018-12-26T01:42:57.729Z,40.39
2018-12-26T01:45:28.016Z,40.38
2018-12-26T01:47:58.347Z,40.36
2018-12-26T01:50:28.623Z,40.34
2018-12-26T01:52:58.941Z,40.36
2018-12-26T01:55:29.218Z,40.34
2018-12-26T01:57:59.474Z,40.29
2018-12-26T02:00:29.834Z,40.30
2018-12-26T02:03:00.091Z,40.30
2018-12-26T02:05:30.407Z,40.30
2018-12-26T02:08:00.660Z,40.28
2018-12-26T02:10:31.019Z,40.28
2018-12-26T02:13:01.354Z,40.25
2018-12-26T02:15:31.653Z,40.22
2018-12-26T02:18:21.055Z,40.22
2018-12-26T02:20:51.391Z,40.22
2018-12-26T02:23:21.717Z,40.20
2018-12-26T02:25:52.000Z,40.16
2018-12-26T02:28:22.262Z,40.18
2018-12-26T02:30:52.520Z,40.16
2018-12-26T02:33:22.885Z,40.14
2018-12-26T02:35:53.202Z,40.13
2018-12-26T02:38:23.494Z,40.10
2018-12-26T02:40:53.746Z,40.10
2018-12-26T02:43:24.099Z,40.08
2018-12-26T02:45:54.372Z,40.06
2018-12-26T02:48:24.664Z,40.08
2018-12-26T02:50:54.933Z,40.05
2018-12-26T02:53:25.235Z,40.08
2018-12-26T02:55:55.496Z,40.07
2018-12-26T02:58:25.781Z,40.05
2018-12-26T03:00:56.108Z,40.06
2018-12-26T03:03:26.490Z,40.04
2018-12-26T03:05:56.842Z,40.02
2018-12-26T03:08:27.119Z,40.00
2018-12-26T03:10:57.446Z,40.02
2018-12-26T03:13:27.734Z,40.01
2018-12-26T03:15:57.999Z,39.98
2018-12-26T03:18:28.333Z,40.03
2018-12-26T03:20:58.678Z,40.03
2018-12-26T03:23:48.018Z,39.98
2018-12-26T03:26:18.314Z,39.95
2018-12-26T03:28:48.580Z,39.97
2018-12-26T03:31:20.479Z,39.97
2018-12-26T03:33:50.809Z,39.99
2018-12-26T03:36:40.104Z,39.98
2018-12-26T03:39:10.385Z,39.99
2018-12-26T03:41:40.679Z,39.97
2018-12-26T03:44:10.960Z,39.98
2018-12-26T03:46:41.288Z,39.98
2018-12-26T03:49:11.632Z,39.94
2018-12-26T03:51:41.958Z,39.96
2018-12-26T03:54:12.302Z,39.95
2018-12-26T03:56:42.562Z,39.97
2018-12-26T03:59:12.914Z,39.94
2018-12-26T04:01:43.235Z,39.95
2018-12-26T04:04:13.531Z,39.94
2018-12-26T04:06:43.849Z,39.94
2018-12-26T04:09:14.123Z,39.96
2018-12-26T04:11:44.483Z,39.94
2018-12-26T04:14:16.358Z,39.94
2018-12-26T04:16:46.873Z,39.93
2018-12-26T04:19:17.230Z,39.88
2018-12-26T04:21:47.530Z,39.88
2018-12-26T04:24:17.794Z,39.84
2018-12-26T04:26:48.076Z,39.85
2018-12-26T04:29:18.327Z,39.83
2018-12-26T04:31:48.677Z,39.80
2018-12-26T04:34:19.006Z,39.80
2018-12-26T04:36:49.299Z,39.79
2018-12-26T04:42:29.636Z,39.79
2018-12-26T04:44:59.961Z,39.77
2018-12-26T04:47:30.245Z,39.80
2018-12-26T04:50:00.575Z,39.75
2018-12-26T04:52:31.123Z,39.75
2018-12-26T04:55:01.379Z,39.78
2018-12-26T04:57:31.726Z,39.76
2018-12-26T05:00:20.825Z,39.77
2018-12-26T05:02:51.156Z,39.79
2018-12-26T05:05:21.415Z,39.77
2018-12-26T05:07:51.745Z,39.77
2018-12-26T05:10:22.195Z,39.78
2018-12-26T05:12:52.435Z,39.77
2018-12-26T05:15:22.715Z,39.77
2018-12-26T05:17:53.049Z,39.70
2018-12-26T05:20:23.416Z,39.69
2018-12-26T05:22:53.739Z,39.66
2018-12-26T05:25:24.036Z,39.66
2018-12-26T05:27:54.359Z,39.66
2018-12-26T05:30:24.724Z,39.63
2018-12-26T05:32:55.008Z,39.60
2018-12-26T05:35:25.261Z,39.60
2018-12-26T05:37:55.627Z,39.60
2018-12-26T05:40:25.891Z,39.56
2018-12-26T05:42:56.163Z,39.58
2018-12-26T05:45:26.423Z,39.53
2018-12-26T05:47:56.707Z,39.54
2018-12-26T05:50:27.036Z,39.54
2018-12-26T05:52:57.389Z,39.47
2018-12-26T05:55:27.718Z,39.54
2018-12-26T05:57:58.004Z,39.55
2018-12-26T06:00:28.351Z,39.55
2018-12-26T06:02:58.671Z,39.52
2018-12-26T06:05:29.016Z,39.56
2018-12-26T06:07:59.279Z,39.50
2018-12-26T06:10:29.567Z,39.21
2018-12-26T06:12:59.822Z,39.25
2018-12-26T06:15:30.102Z,39.26
2018-12-26T06:18:00.380Z,38.91
2018-12-26T06:20:30.666Z,38.84
2018-12-26T06:23:00.991Z,38.70
2018-12-26T06:25:31.275Z,38.71
2018-12-26T06:28:01.552Z,38.34
2018-12-26T06:30:31.811Z,38.62
2018-12-26T06:33:02.149Z,38.62
2018-12-26T06:35:32.493Z,38.61
2018-12-26T06:38:02.815Z,38.35
2018-12-26T06:40:33.111Z,38.19
2018-12-26T06:43:03.437Z,38.51
2018-12-26T06:45:33.723Z,37.42
2018-12-26T06:48:04.051Z,34.16
2018-12-26T06:50:34.315Z,33.43
2018-12-26T06:53:04.573Z,34.03
2018-12-26T06:55:34.836Z,34.55
2018-12-26T06:58:05.178Z,35.28
2018-12-26T07:00:35.446Z,35.26
2018-12-26T07:03:05.704Z,35.38
2018-12-26T07:05:35.970Z,35.52
2018-12-26T07:08:06.303Z,35.37
2018-12-26T07:10:36.628Z,35.35
2018-12-26T07:13:06.920Z,35.28
2018-12-26T07:15:37.191Z,35.35
2018-12-26T07:18:07.501Z,35.34
2018-12-26T07:20:37.763Z,36.18
2018-12-26T07:23:08.118Z,37.09
2018-12-26T07:25:38.446Z,36.92
2018-12-26T07:28:09.498Z,35.89
2018-12-26T07:30:46.120Z,36.21
2018-12-26T07:33:16.449Z,36.63
2018-12-26T07:35:46.737Z,36.90
2018-12-26T07:38:18.607Z,37.17
2018-12-26T07:40:48.958Z,37.82
2018-12-26T07:43:19.286Z,37.54
2018-12-26T07:45:49.668Z,37.48
2018-12-26T07:48:19.920Z,36.85
2018-12-26T07:50:50.216Z,37.02
2018-12-26T07:53:20.555Z,37.28
2018-12-26T07:55:50.840Z,37.33
2018-12-26T07:58:21.179Z,37.26
2018-12-26T08:00:51.468Z,37.44
2018-12-26T08:03:21.743Z,37.09
2018-12-26T08:05:52.049Z,37.22
2018-12-26T08:08:22.397Z,37.62
2018-12-26T08:10:52.776Z,37.94
2018-12-26T08:13:23.211Z,38.12
2018-12-26T08:15:53.563Z,38.27
2018-12-26T08:18:23.930Z,37.96
2018-12-26T08:20:54.222Z,38.21
2018-12-26T08:23:24.868Z,38.22
2018-12-26T08:25:55.226Z,38.22
2018-12-26T08:28:26.806Z,37.70
2018-12-26T08:31:02.955Z,37.52
2018-12-26T08:33:33.286Z,37.59
2018-12-26T08:36:03.664Z,37.90
2018-12-26T08:38:34.022Z,38.10
2018-12-26T08:41:04.282Z,38.27
2018-12-26T08:43:34.681Z,38.30
2018-12-26T08:46:05.101Z,38.51
2018-12-26T08:48:37.302Z,38.61
2018-12-26T08:51:07.695Z,38.73
2018-12-26T08:53:38.005Z,39.01
2018-12-26T08:59:23.083Z,39.16
2018-12-26T09:01:53.362Z,39.34
2018-12-26T09:04:23.660Z,39.53
2018-12-26T09:06:53.938Z,39.64
2018-12-26T09:09:24.318Z,39.78
2018-12-26T09:11:54.631Z,39.87
2018-12-26T09:14:25.068Z,39.95
2018-12-26T09:16:55.369Z,40.07
2018-12-26T09:19:25.734Z,40.21
2018-12-26T09:21:56.078Z,40.06
2018-12-26T09:24:28.519Z,40.14
2018-12-26T09:26:58.860Z,40.20
2018-12-26T09:29:29.138Z,40.26
2018-12-26T09:31:59.533Z,40.19
2018-12-26T09:34:29.878Z,40.26
2018-12-26T09:37:00.251Z,40.16
2018-12-26T09:39:30.589Z,40.14
2018-12-26T09:42:00.947Z,40.14
2018-12-26T09:44:31.334Z,40.24
2018-12-26T09:47:01.691Z,40.32
2018-12-26T09:49:31.971Z,40.41
2018-12-26T09:52:02.292Z,40.34
2018-12-26T09:54:32.598Z,40.32
2018-12-26T09:57:02.874Z,40.35
2018-12-26T09:59:33.167Z,40.39
2018-12-26T10:02:03.501Z,40.56
2018-12-26T10:04:33.884Z,40.57
2018-12-26T10:07:04.155Z,40.58
2018-12-26T10:09:34.471Z,40.63
2018-12-26T10:12:04.831Z,40.64
2018-12-26T10:14:35.166Z,40.78
2018-12-26T10:17:05.549Z,40.81
2018-12-26T10:19:35.876Z,40.86
2018-12-26T10:22:25.068Z,41.12
2018-12-26T10:24:55.411Z,41.08
2018-12-26T10:27:26.033Z,41.42
2018-12-26T10:29:56.383Z,41.01
2018-12-26T10:32:26.708Z,40.91
2018-12-26T10:34:57.037Z,40.89
2018-12-26T10:37:27.370Z,40.36
2018-12-26T10:39:57.630Z,40.09
2018-12-26T10:42:27.969Z,40.01
2018-12-26T10:44:58.321Z,40.24
2018-12-26T10:47:28.592Z,40.22
2018-12-26T10:49:58.876Z,40.07
2018-12-26T10:52:29.145Z,40.01
2018-12-26T10:55:18.305Z,40.18
2018-12-26T10:57:48.637Z,40.25
2018-12-26T11:00:19.007Z,40.41
2018-12-26T11:02:49.352Z,40.47
2018-12-26T11:05:19.720Z,40.54
2018-12-26T11:07:50.046Z,40.58
2018-12-26T11:10:20.382Z,40.67
2018-12-26T11:12:50.708Z,40.71
2018-12-26T11:15:20.963Z,40.71
2018-12-26T11:17:51.303Z,40.79
2018-12-26T11:20:21.630Z,40.76
2018-12-26T11:22:51.994Z,40.81
2018-12-26T11:25:22.314Z,40.80
2018-12-26T11:27:52.982Z,40.82
2018-12-26T11:30:43.743Z,40.83
2018-12-26T11:33:14.076Z,40.82
2018-12-26T11:35:44.366Z,40.79
2018-12-26T11:38:14.734Z,40.76
2018-12-26T11:40:45.220Z,40.80
2018-12-26T11:43:15.520Z,40.84
2018-12-26T11:45:45.876Z,40.80
2018-12-26T11:48:16.220Z,40.78
2018-12-26T11:50:46.649Z,40.80
2018-12-26T11:53:16.996Z,40.74
2018-12-26T11:55:47.337Z,40.73
2018-12-26T11:58:17.695Z,40.72
2018-12-26T12:00:48.032Z,40.76
2018-12-26T12:03:18.352Z,40.74
2018-12-26T12:05:48.692Z,40.68
2018-12-26T12:08:19.158Z,40.71
2018-12-26T12:10:50.257Z,40.63
2018-12-26T12:16:28.731Z,40.65
2018-12-26T12:18:59.087Z,40.62
2018-12-26T12:21:29.432Z,40.62
2018-12-26T12:23:59.807Z,40.60
2018-12-26T12:26:30.602Z,40.54
2018-12-26T12:29:00.916Z,40.51
2018-12-26T12:31:31.273Z,40.53
2018-12-26T12:34:01.528Z,40.52
2018-12-26T12:36:31.889Z,40.52
2018-12-26T12:39:40.295Z,40.52
2018-12-26T12:42:10.576Z,40.49
2018-12-26T12:44:40.911Z,40.43
2018-12-26T12:47:11.476Z,40.45
2018-12-26T12:49:41.745Z,40.39
2018-12-26T12:52:12.031Z,40.41
2018-12-26T12:54:42.390Z,40.43
2018-12-26T12:57:12.666Z,40.41
2018-12-26T12:59:44.867Z,40.37
2018-12-26T13:02:34.032Z,40.37
2018-12-26T13:05:06.589Z,40.28
2018-12-26T13:07:36.951Z,40.29
2018-12-26T13:10:07.206Z,40.23
2018-12-26T13:12:37.566Z,40.25
2018-12-26T13:15:07.860Z,40.17
2018-12-26T13:17:38.279Z,40.21
2018-12-26T13:20:09.582Z,40.19
2018-12-26T13:22:39.850Z,40.14
2018-12-26T13:25:10.233Z,40.12
2018-12-26T13:27:40.607Z,40.15
2018-12-26T13:30:22.252Z,40.09
2018-12-26T13:32:52.543Z,40.10
2018-12-26T13:35:22.875Z,39.84
2018-12-26T13:37:53.214Z,39.87
2018-12-26T13:40:23.543Z,39.68
2018-12-26T13:42:53.899Z,39.73
2018-12-26T13:45:24.167Z,39.78
2018-12-26T13:47:56.799Z,39.78
2018-12-26T13:50:27.419Z,39.85
2018-12-26T13:52:57.767Z,39.87
2018-12-26T13:55:28.161Z,39.85
2018-12-26T13:57:58.517Z,39.84
2018-12-26T14:00:28.849Z,39.87
2018-12-26T14:02:59.211Z,39.88
2018-12-26T14:05:29.581Z,39.87
2018-12-26T14:07:59.899Z,39.90
2018-12-26T14:10:49.080Z,39.89
2018-12-26T14:16:23.975Z,39.92
2018-12-26T14:18:54.286Z,39.71
2018-12-26T14:21:24.639Z,39.78
2018-12-26T14:24:13.833Z,39.78
2018-12-26T14:26:56.167Z,39.77
2018-12-26T14:29:26.645Z,39.83
2018-12-26T14:31:57.236Z,39.84
2018-12-26T14:34:28.752Z,39.88
2018-12-26T14:36:59.095Z,39.82
2018-12-26T14:39:29.659Z,39.80
2018-12-26T14:42:00.004Z,39.76
2018-12-26T14:44:30.705Z,39.79
2018-12-26T14:47:01.279Z,39.91
2018-12-26T14:49:31.658Z,39.98
2018-12-26T14:52:02.016Z,40.00
2018-12-26T14:57:27.630Z,39.97
2018-12-26T14:59:58.439Z,39.85
2018-12-26T15:02:48.140Z,39.66
2018-12-26T15:05:20.317Z,39.54
2018-12-26T15:07:50.877Z,39.41
2018-12-26T15:10:22.436Z,39.26
2018-12-26T15:12:52.840Z,39.12
2018-12-26T15:15:23.299Z,39.16
2018-12-26T15:17:54.766Z,38.90
2018-12-26T15:26:36.698Z,38.71
2018-12-26T15:29:07.311Z,38.67
2018-12-26T15:31:38.139Z,38.11
2018-12-26T15:34:08.819Z,37.86
2018-12-26T15:37:00.467Z,37.59
2018-12-26T15:39:31.150Z,37.77
2018-12-26T15:42:01.616Z,37.95
2018-12-26T15:44:32.191Z,37.94
2018-12-26T15:47:07.491Z,37.89
2018-12-26T15:49:37.996Z,37.86
2018-12-26T15:52:10.668Z,37.98
2018-12-26T15:55:01.013Z,37.96
2018-12-26T15:57:31.778Z,37.97
2018-12-26T16:00:02.543Z,37.98
2018-12-26T16:02:33.293Z,37.87
2018-12-26T16:05:03.855Z,37.96
2018-12-26T16:07:34.588Z,37.48
2018-12-26T16:10:05.893Z,37.68
2018-12-26T16:12:36.663Z,37.66
2018-12-26T16:15:10.519Z,37.59
2018-12-26T16:17:41.274Z,37.56
2018-12-26T16:20:12.429Z,37.30
2018-12-26T16:22:43.447Z,37.42
2018-12-26T16:25:14.672Z,37.51
2018-12-26T16:31:10.883Z,37.31
2018-12-26T16:33:41.166Z,36.97
2018-12-26T16:36:12.991Z,37.06
2018-12-26T16:38:54.490Z,37.45
2018-12-26T16:41:24.891Z,37.80
2018-12-26T16:43:56.877Z,37.72
2018-12-26T16:46:27.223Z,37.70
2018-12-26T16:48:57.740Z,37.74
2018-12-26T16:51:28.111Z,37.78
2018-12-26T16:53:58.483Z,37.79
2018-12-26T16:56:28.867Z,37.77
2018-12-26T16:58:59.257Z,37.83
2018-12-26T17:01:32.170Z,37.83
2018-12-26T17:04:02.616Z,37.88
2018-12-26T17:06:35.454Z,38.01
2018-12-26T17:09:09.091Z,37.93
2018-12-26T17:14:30.979Z,37.89
2018-12-26T17:17:12.733Z,37.83
2018-12-26T17:19:43.118Z,37.80
2018-12-26T17:22:13.450Z,37.81
2018-12-26T17:24:43.922Z,37.78
2018-12-26T17:27:14.349Z,37.76
2018-12-26T17:29:44.892Z,37.75
2018-12-26T17:32:15.442Z,37.71
2018-12-26T17:34:46.349Z,37.82
2018-12-26T17:37:49.953Z,37.84
2018-12-26T17:40:21.982Z,37.83
2018-12-26T17:43:18.788Z,37.89
2018-12-26T17:45:49.587Z,37.89
2018-12-26T17:48:20.185Z,37.85
2018-12-26T17:50:51.830Z,37.82
2018-12-26T17:54:00.705Z,37.82
2018-12-26T17:56:45.082Z,37.80
2018-12-26T17:59:53.338Z,37.77
2018-12-26T18:02:45.425Z,37.77
2018-12-26T18:05:17.585Z,37.80
2018-12-26T18:07:50.040Z,37.82
2018-12-26T18:10:21.742Z,37.79
2018-12-26T18:16:19.099Z,37.73
2018-12-26T18:18:49.898Z,37.69
2018-12-26T18:21:20.322Z,37.66
2018-12-26T18:27:14.862Z,37.62
2018-12-26T18:29:46.599Z,37.63
2018-12-26T18:32:17.177Z,37.66
2018-12-26T18:34:47.742Z,37.70
2018-12-26T18:37:18.439Z,37.77
2018-12-26T18:39:48.884Z,38.37
2018-12-26T18:42:19.510Z,38.08
2018-12-26T18:44:50.372Z,38.06
2018-12-26T18:47:23.465Z,38.29
2018-12-26T18:49:53.902Z,38.31
2018-12-26T18:52:24.473Z,38.34
2018-12-26T18:54:54.700Z,38.26
2018-12-26T18:57:25.174Z,38.24
2018-12-26T19:05:55.180Z,38.18
2018-12-26T19:08:25.543Z,38.07
2018-12-26T19:10:55.936Z,38.14
2018-12-26T19:13:26.334Z,38.23
2018-12-26T19:15:57.258Z,38.30
2018-12-26T19:18:46.889Z,38.04
2018-12-26T19:21:17.321Z,37.88
2018-12-26T19:23:48.136Z,37.78
2018-12-26T19:26:18.721Z,37.69
2018-12-26T19:28:49.454Z,37.63
2018-12-26T19:31:20.347Z,37.60
2018-12-26T19:34:00.339Z,37.54
2018-12-26T19:36:32.363Z,37.51
2018-12-26T19:39:02.947Z,37.47
2018-12-26T19:41:37.033Z,37.43
2018-12-26T19:44:07.998Z,37.41
2018-12-26T19:46:57.553Z,37.41
2018-12-26T19:49:28.732Z,37.38
2018-12-26T19:52:18.253Z,37.36
2018-12-26T19:54:49.268Z,37.34
2018-12-26T19:57:22.669Z,37.31
2018-12-26T19:59:53.117Z,37.28
2018-12-26T20:02:23.650Z,37.23
2018-12-26T20:04:54.000Z,37.17
2018-12-26T20:07:26.505Z,37.19
2018-12-26T20:09:56.895Z,37.23
2018-12-26T20:12:46.413Z,37.21
2018-12-26T20:15:35.830Z,37.19
2018-12-26T20:18:06.273Z,37.12
2018-12-26T20:20:36.849Z,37.12
2018-12-26T20:23:07.234Z,37.12
2018-12-26T20:25:37.645Z,37.07
2018-12-26T20:28:08.616Z,37.00
2018-12-26T20:30:43.715Z,36.98
2018-12-26T20:33:14.168Z,37.04
2018-12-26T20:35:47.593Z,37.29
2018-12-26T20:38:19.487Z,37.84
2018-12-26T20:40:49.909Z,37.81
2018-12-26T20:43:20.356Z,37.59
2018-12-26T20:45:50.788Z,37.38
2018-12-26T20:48:22.185Z,37.23
2018-12-26T20:54:59.099Z,37.04
2018-12-26T20:57:29.601Z,36.96
2018-12-26T20:59:59.982Z,36.92
2018-12-26T21:02:30.375Z,36.87
2018-12-26T21:05:00.769Z,36.83
2018-12-26T21:07:31.390Z,36.86
2018-12-26T21:10:02.900Z,36.83
2018-12-26T21:12:34.804Z,37.19
2018-12-26T21:15:05.160Z,37.18
2018-12-26T21:17:35.528Z,37.18
2018-12-26T21:20:07.155Z,37.27
2018-12-26T21:22:37.491Z,37.13
2018-12-26T21:25:09.146Z,36.76
2018-12-26T21:27:39.426Z,36.89
2018-12-26T21:30:12.796Z,36.90
2018-12-26T21:32:43.233Z,36.94
2018-12-26T21:35:15.158Z,36.89
2018-12-26T21:37:45.433Z,36.87
2018-12-26T21:40:17.353Z,36.76
2018-12-26T21:42:49.615Z,36.71
2018-12-26T21:45:19.992Z,36.49
2018-12-26T21:47:50.342Z,36.57
2018-12-26T21:50:20.717Z,36.47
2018-12-26T21:52:53.243Z,36.45
2018-12-26T21:55:23.592Z,36.44
2018-12-26T21:57:54.363Z,36.37
2018-12-26T22:00:24.705Z,36.36
2018-12-26T22:02:55.078Z,36.32
2018-12-26T22:05:25.427Z,36.35
2018-12-26T22:07:55.844Z,36.20
2018-12-26T22:10:26.190Z,36.16
2018-12-26T22:12:56.562Z,36.28
2018-12-26T22:15:26.965Z,36.20
2018-12-26T22:17:57.266Z,36.09
2018-12-26T22:20:28.360Z,36.05
2018-12-26T22:22:58.732Z,36.04
2018-12-26T22:25:29.097Z,35.92
2018-12-26T22:27:59.879Z,36.07
2018-12-26T22:30:30.353Z,35.87
2018-12-26T22:33:01.044Z,35.96
2018-12-26T22:35:32.556Z,35.95
2018-12-26T22:38:22.504Z,35.78
2018-12-26T22:44:07.860Z,35.86
2018-12-26T22:46:38.165Z,35.81
2018-12-26T22:52:13.521Z,35.64
2018-12-26T22:54:43.844Z,35.82
2018-12-26T22:57:14.441Z,35.70
2018-12-26T22:59:44.698Z,35.64
2018-12-26T23:02:15.060Z,35.70
2018-12-26T23:04:45.399Z,35.62
2018-12-26T23:07:15.783Z,35.56
2018-12-26T23:09:46.108Z,35.59
2018-12-26T23:12:16.447Z,35.58
2018-12-26T23:14:46.804Z,35.45
2018-12-26T23:17:17.193Z,35.52
2018-12-26T23:19:47.711Z,35.54
2018-12-26T23:22:18.039Z,35.46
2018-12-26T23:24:48.395Z,35.42
2018-12-26T23:27:18.733Z,35.27
2018-12-26T23:29:49.095Z,35.24
2018-12-26T23:32:19.361Z,35.32
2018-12-26T23:34:49.719Z,35.19
2018-12-26T23:37:20.076Z,35.13
2018-12-26T23:39:50.417Z,35.32
2018-12-26T23:42:20.725Z,35.09
2018-12-26T23:44:51.053Z,35.07
2018-12-26T23:50:16.590Z,35.13
2018-12-26T23:52:46.862Z,35.16
2018-12-26T23:55:17.153Z,35.12
2018-12-26T23:57:47.472Z,35.09
